Time;durP1;ratioP1;P1;durP2;ratioP2;P2;SDS_P1;SDS_P2;PMS_P1;PMS_P2;Temp;Humidity;BMP_temperature;BMP_pressure;BME280_temperature;BME280_humidity;BME280_pressure;Samples;Min_cycle;Max_cycle;Signal;HPM_P1;HPM_P2
2023/07/30 00:02:24;;;;;;;941.20;849.80;;;14.50;99.90;;;;;;4995974;28;20544;-69
2023/07/30 00:04:51;;;;;;;944.20;853.70;;;14.50;99.90;;;;;;4981153;28;20450;-69
2023/07/30 00:07:18;;;;;;;940.83;851.70;;;14.60;99.90;;;;;;4996099;28;20478;-69
2023/07/30 00:09:45;;;;;;;932.90;845.50;;;14.50;99.90;;;;;;4995837;28;20461;-69
2023/07/30 00:12:12;;;;;;;923.53;837.47;;;14.40;99.90;;;;;;4996482;28;20460;-69
2023/07/30 00:14:38;;;;;;;928.23;842.50;;;14.40;99.90;;;;;;4995963;28;20890;-69
2023/07/30 00:17:07;;;;;;;931.87;846.70;;;14.50;99.90;;;;;;4996285;28;20457;-69
2023/07/30 00:19:35;;;;;;;923.70;838.60;;;14.40;99.90;;;;;;4995643;28;20465;-69
2023/07/30 00:22:02;;;;;;;926.60;843.33;;;14.40;99.90;;;;;;4995783;28;20457;-69
2023/07/30 00:24:29;;;;;;;919.70;837.90;;;14.40;99.90;;;;;;4996017;28;20454;-69
2023/07/30 00:26:56;;;;;;;924.87;844.40;;;14.40;99.90;;;;;;4986807;28;20483;-69
2023/07/30 00:29:23;;;;;;;925.27;845.33;;;14.40;99.90;;;;;;4976149;28;20463;-69
2023/07/30 00:31:49;;;;;;;908.80;831.67;;;14.40;99.90;;;;;;4976136;28;20450;-69
2023/07/30 00:34:18;;;;;;;917.97;839.83;;;14.30;99.90;;;;;;4976215;28;20462;-68
2023/07/30 00:36:44;;;;;;;915.43;836.83;;;14.20;99.90;;;;;;4978672;28;20463;-69
2023/07/30 00:39:11;;;;;;;917.97;839.00;;;14.20;99.90;;;;;;4976385;28;20447;-69
2023/07/30 00:41:38;;;;;;;923.00;842.50;;;14.10;99.90;;;;;;4975787;28;20454;-69
2023/07/30 00:44:05;;;;;;;923.17;842.50;;;14.10;99.90;;;;;;4982370;28;20944;-69
2023/07/30 00:46:32;;;;;;;926.57;845.47;;;14.10;99.90;;;;;;4991867;28;20537;-69
2023/07/30 00:48:59;;;;;;;928.30;846.47;;;14.00;99.90;;;;;;4995685;28;20465;-69
2023/07/30 00:51:28;;;;;;;923.33;840.67;;;14.00;99.90;;;;;;4995212;28;20961;-69
2023/07/30 00:53:55;;;;;;;922.80;839.23;;;14.00;99.90;;;;;;4995036;28;20942;-69
2023/07/30 00:56:22;;;;;;;919.53;837.43;;;14.00;99.90;;;;;;4995756;28;20815;-69
2023/07/30 00:58:50;;;;;;;919.90;838.37;;;13.90;99.90;;;;;;4995131;28;20450;-69
2023/07/30 01:01:17;;;;;;;917.37;834.60;;;13.90;99.90;;;;;;4995141;28;20458;-69
2023/07/30 01:03:43;;;;;;;927.20;842.00;;;13.90;99.90;;;;;;4995481;28;20458;-69
2023/07/30 01:06:11;;;;;;;930.10;845.30;;;14.10;99.90;;;;;;4995377;28;20484;-69
2023/07/30 01:08:39;;;;;;;929.43;844.17;;;14.00;99.90;;;;;;4994179;28;20482;-69
2023/07/30 01:11:08;;;;;;;916.20;829.70;;;14.00;99.90;;;;;;4977160;28;20466;-69
2023/07/30 01:13:37;;;;;;;908.47;822.37;;;14.00;99.90;;;;;;4983326;28;20491;-69
2023/07/30 01:16:04;;;;;;;906.70;819.90;;;14.00;99.90;;;;;;4975687;28;20456;-69
2023/07/30 01:18:31;;;;;;;911.33;826.40;;;14.10;99.90;;;;;;4975391;28;20884;-69
2023/07/30 01:21:00;;;;;;;909.20;825.40;;;14.20;99.90;;;;;;4975159;28;20466;-69
2023/07/30 01:23:27;;;;;;;899.53;817.43;;;14.30;99.90;;;;;;4975281;28;20459;-69
2023/07/30 01:26:04;;;;;;;902.50;822.53;;;14.40;99.90;;;;;;4978080;28;20451;-69
2023/07/30 01:28:38;;;;;;;901.70;823.20;;;14.60;99.90;;;;;;4982187;28;20533;-69
2023/07/30 01:31:07;;;;;;;901.40;821.90;;;14.60;99.90;;;;;;4985680;28;20455;-69
2023/07/30 01:33:34;;;;;;;902.27;823.70;;;14.70;99.90;;;;;;4994749;28;20950;-69
2023/07/30 01:36:04;;;;;;;905.27;826.37;;;14.80;99.90;;;;;;4994520;28;20493;-69
2023/07/30 01:38:31;;;;;;;909.37;828.27;;;14.90;99.90;;;;;;4994332;28;20946;-69
2023/07/30 01:40:59;;;;;;;908.60;826.60;;;14.90;99.90;;;;;;4994408;28;20460;-69
2023/07/30 01:43:25;;;;;;;898.50;816.93;;;15.00;99.90;;;;;;4993562;28;20451;-69
2023/07/30 01:45:52;;;;;;;905.93;825.67;;;15.10;99.90;;;;;;4978030;28;20459;-69
2023/07/30 01:48:19;;;;;;;911.17;832.67;;;15.20;99.90;;;;;;4974416;28;20475;-69
2023/07/30 01:50:48;;;;;;;912.50;834.83;;;15.30;99.90;;;;;;4974797;28;20459;-69
2023/07/30 01:53:16;;;;;;;912.97;836.63;;;15.30;99.90;;;;;;4974869;28;20455;-69
2023/07/30 01:55:45;;;;;;;910.57;837.10;;;15.40;99.90;;;;;;4974941;28;20451;-69
2023/07/30 01:58:12;;;;;;;915.53;844.00;;;15.40;99.90;;;;;;4974619;28;20459;-69
2023/07/30 02:00:40;;;;;;;907.83;838.13;;;15.40;99.90;;;;;;4975426;28;20459;-69
2023/07/30 02:03:06;;;;;;;906.90;837.37;;;15.50;99.90;;;;;;4974491;28;20459;-69
2023/07/30 02:05:33;;;;;;;913.70;843.57;;;15.50;99.90;;;;;;4990783;28;20454;-69
2023/07/30 02:08:00;;;;;;;916.17;846.63;;;15.60;99.90;;;;;;4993910;28;20482;-69
2023/07/30 02:10:29;;;;;;;907.37;838.30;;;15.60;99.90;;;;;;4993789;28;20537;-69
2023/07/30 02:12:55;;;;;;;923.00;852.70;;;15.50;99.90;;;;;;4993916;28;20460;-69
2023/07/30 02:15:22;;;;;;;921.90;851.50;;;15.50;99.90;;;;;;4988015;28;20986;-69
2023/07/30 02:17:49;;;;;;;912.57;844.60;;;15.40;99.90;;;;;;4985561;28;20454;-69
2023/07/30 02:20:16;;;;;;;915.70;847.80;;;15.30;99.90;;;;;;4993515;28;20935;-69
2023/07/30 02:22:43;;;;;;;910.57;841.50;;;15.30;99.90;;;;;;4993499;28;20466;-69
2023/07/30 02:25:10;;;;;;;912.30;843.33;;;15.20;99.90;;;;;;4993565;28;20465;-69
2023/07/30 02:27:38;;;;;;;906.03;836.97;;;15.20;99.90;;;;;;4993520;28;20484;-69
2023/07/30 02:30:06;;;;;;;900.13;831.93;;;15.30;99.90;;;;;;4993312;28;20486;-69
2023/07/30 02:32:33;;;;;;;893.10;828.50;;;15.30;99.90;;;;;;4982441;28;20494;-69
2023/07/30 02:35:00;;;;;;;893.53;829.03;;;15.30;99.90;;;;;;4974282;28;20542;-69
2023/07/30 02:37:26;;;;;;;897.33;834.20;;;15.20;99.90;;;;;;4973935;28;20459;-69
2023/07/30 02:39:53;;;;;;;910.13;844.57;;;15.10;99.90;;;;;;4973992;28;20455;-69
2023/07/30 02:42:20;;;;;;;911.40;844.87;;;14.90;99.90;;;;;;4973893;28;20458;-69
2023/07/30 02:44:48;;;;;;;912.50;844.30;;;14.80;99.90;;;;;;4973868;28;20462;-69
2023/07/30 02:47:15;;;;;;;919.07;848.77;;;14.70;99.90;;;;;;4973924;28;20462;-69
2023/07/30 02:49:42;;;;;;;908.53;836.57;;;14.70;99.90;;;;;;4974094;28;20455;-69
2023/07/30 02:52:09;;;;;;;912.37;838.77;;;14.70;99.90;;;;;;4974142;28;20459;-69
2023/07/30 02:54:35;;;;;;;911.37;836.20;;;14.70;99.90;;;;;;4976984;28;20458;-69
2023/07/30 02:57:02;;;;;;;913.00;839.23;;;14.70;99.90;;;;;;4976754;28;20980;-69
2023/07/30 02:59:29;;;;;;;894.67;822.97;;;14.80;99.90;;;;;;4973899;28;20459;-69
2023/07/30 03:01:57;;;;;;;898.30;827.80;;;14.80;99.90;;;;;;4973653;28;20663;-69
2023/07/30 03:04:24;;;;;;;898.57;830.27;;;14.80;99.90;;;;;;4974062;28;20451;-69
2023/07/30 03:06:51;;;;;;;893.60;827.60;;;14.80;99.90;;;;;;4973604;28;20459;-69
2023/07/30 03:09:17;;;;;;;889.03;826.20;;;14.70;99.90;;;;;;4973498;28;20494;-69
2023/07/30 03:11:44;;;;;;;878.57;817.27;;;14.80;99.90;;;;;;4973405;28;21023;-69
2023/07/30 03:14:11;;;;;;;887.83;824.93;;;14.70;99.90;;;;;;4973709;28;20458;-69
2023/07/30 03:16:38;;;;;;;892.53;827.07;;;14.70;99.90;;;;;;4981036;28;20953;-67
2023/07/30 03:19:06;;;;;;;882.00;817.80;;;14.60;99.90;;;;;;4985987;28;20806;-67
2023/07/30 03:21:33;;;;;;;886.60;822.10;;;14.60;99.90;;;;;;4986788;28;20535;-67
2023/07/30 03:24:00;;;;;;;883.20;818.30;;;14.60;99.90;;;;;;4979461;28;20462;-68
2023/07/30 03:26:26;;;;;;;892.10;828.60;;;14.60;99.90;;;;;;4980853;28;20463;-68
2023/07/30 03:28:53;;;;;;;825.20;774.57;;;14.80;99.90;;;;;;4986799;28;20601;-68
2023/07/30 03:31:20;;;;;;;825.57;775.87;;;14.90;99.90;;;;;;4992433;28;20817;-68
2023/07/30 03:33:47;;;;;;;819.87;771.87;;;15.00;99.90;;;;;;4992679;28;20455;-68
2023/07/30 03:36:15;;;;;;;823.43;773.93;;;15.10;99.90;;;;;;4980290;28;20451;-68
2023/07/30 03:38:42;;;;;;;829.50;780.57;;;15.10;99.90;;;;;;4992765;28;20822;-68
2023/07/30 03:41:10;;;;;;;832.07;781.93;;;15.10;99.90;;;;;;4984743;28;20451;-68
2023/07/30 03:43:38;;;;;;;828.73;778.60;;;15.20;99.90;;;;;;4973222;28;20459;-68
2023/07/30 03:46:04;;;;;;;818.13;769.33;;;15.20;99.90;;;;;;4973403;28;20557;-68
2023/07/30 03:48:31;;;;;;;846.77;795.20;;;15.30;99.90;;;;;;4979545;28;20478;-68
2023/07/30 03:50:58;;;;;;;833.73;783.77;;;15.30;99.90;;;;;;4973840;28;20451;-67
2023/07/30 03:53:26;;;;;;;724.53;689.83;;;15.30;99.90;;;;;;4983292;28;21029;-68
2023/07/30 03:55:53;;;;;;;699.53;667.73;;;15.20;99.90;;;;;;4972989;28;20463;-68
2023/07/30 03:58:20;;;;;;;721.13;686.90;;;15.10;99.90;;;;;;4980693;28;20495;-68
2023/07/30 04:00:47;;;;;;;704.40;673.00;;;15.00;99.90;;;;;;4983903;28;20461;-68
2023/07/30 04:03:14;;;;;;;572.87;551.40;;;15.00;99.90;;;;;;4978483;28;20450;-68
2023/07/30 04:05:40;;;;;;;557.47;536.87;;;15.00;99.90;;;;;;4983669;28;20455;-68
2023/07/30 04:08:07;;;;;;;534.80;515.30;;;15.00;99.90;;;;;;4975823;28;20565;-68
2023/07/30 04:10:36;;;;;;;596.93;573.23;;;14.90;99.90;;;;;;4986523;28;20538;-67
2023/07/30 04:13:03;;;;;;;566.77;544.53;;;14.90;99.90;;;;;;4996059;28;20537;-68
2023/07/30 04:15:29;;;;;;;481.93;464.43;;;14.80;99.90;;;;;;4986739;28;20481;-68
2023/07/30 04:17:56;;;;;;;505.67;486.40;;;14.80;99.90;;;;;;4976046;28;20553;-68
2023/07/30 04:20:23;;;;;;;513.47;494.60;;;14.80;99.90;;;;;;4990912;28;20454;-67
2023/07/30 04:22:50;;;;;;;501.67;483.47;;;14.70;99.90;;;;;;4984235;28;20538;-69
2023/07/30 04:25:17;;;;;;;473.50;456.73;;;14.70;99.90;;;;;;4991228;28;20460;-68
2023/07/30 04:27:45;;;;;;;492.50;474.50;;;14.70;99.90;;;;;;4981442;28;20461;-68
2023/07/30 04:30:12;;;;;;;505.43;486.80;;;14.70;99.90;;;;;;4993860;28;20538;-68
2023/07/30 04:32:39;;;;;;;489.53;472.13;;;14.70;99.90;;;;;;4982599;28;20455;-68
2023/07/30 04:35:07;;;;;;;457.20;440.23;;;14.70;99.90;;;;;;4983030;28;20454;-68
2023/07/30 04:37:33;;;;;;;331.40;320.80;;;14.70;99.90;;;;;;4989209;28;20455;-68
2023/07/30 04:40:00;;;;;;;394.20;380.77;;;14.80;99.90;;;;;;4977201;28;20538;-68
2023/07/30 04:42:27;;;;;;;556.60;535.13;;;14.80;99.90;;;;;;4980014;28;20454;-66
2023/07/30 04:44:55;;;;;;;416.60;402.40;;;14.90;99.90;;;;;;4990910;28;20451;-68
2023/07/30 04:47:22;;;;;;;211.00;204.10;;;15.00;99.90;;;;;;4994874;28;20464;-68
2023/07/30 04:49:49;;;;;;;296.07;286.97;;;15.00;99.90;;;;;;4989551;28;20479;-68
2023/07/30 04:52:16;;;;;;;202.83;196.40;;;15.10;99.90;;;;;;4984595;28;20450;-68
2023/07/30 04:54:43;;;;;;;239.57;232.17;;;15.10;99.90;;;;;;4994655;28;20455;-68
2023/07/30 04:57:10;;;;;;;152.17;146.33;;;15.20;99.90;;;;;;4994431;28;20468;-68
2023/07/30 04:59:36;;;;;;;165.90;160.10;;;15.20;99.90;;;;;;4978714;28;20450;-68
2023/07/30 05:02:05;;;;;;;201.37;194.87;;;15.30;99.90;;;;;;4994865;28;20818;-68
2023/07/30 05:04:32;;;;;;;293.13;284.07;;;15.30;99.90;;;;;;4991638;28;20454;-68
2023/07/30 05:06:59;;;;;;;370.63;357.70;;;15.30;99.90;;;;;;4978393;28;20455;-67
2023/07/30 05:09:26;;;;;;;429.03;413.87;;;15.20;99.90;;;;;;4984660;28;20839;-67
2023/07/30 05:11:53;;;;;;;535.10;514.93;;;15.10;99.90;;;;;;4983302;28;20782;-66
2023/07/30 05:14:19;;;;;;;613.57;588.97;;;15.10;99.90;;;;;;4980027;28;20463;-65
2023/07/30 05:16:46;;;;;;;619.87;595.37;;;15.10;99.90;;;;;;4991380;28;20455;-66
2023/07/30 05:19:14;;;;;;;677.10;648.30;;;15.10;99.90;;;;;;4980797;28;20469;-66
2023/07/30 05:21:41;;;;;;;718.17;685.10;;;15.00;99.90;;;;;;4984732;28;20488;-66
2023/07/30 05:24:08;;;;;;;747.73;711.87;;;15.10;99.90;;;;;;4986102;28;20491;-66
2023/07/30 05:26:35;;;;;;;770.77;731.33;;;15.10;99.90;;;;;;4986404;28;20461;-65
2023/07/30 05:29:03;;;;;;;754.53;716.60;;;15.20;99.90;;;;;;4990078;28;20481;-65
2023/07/30 05:31:30;;;;;;;696.03;663.73;;;15.30;99.90;;;;;;4978578;28;21014;-65
2023/07/30 05:33:56;;;;;;;732.63;696.27;;;15.30;99.90;;;;;;4985535;28;20534;-65
2023/07/30 05:36:25;;;;;;;696.13;664.03;;;15.40;99.90;;;;;;4985218;28;20809;-65
2023/07/30 05:38:51;;;;;;;609.10;585.00;;;15.50;99.90;;;;;;4984057;28;20506;-67
2023/07/30 05:41:20;;;;;;;663.03;634.83;;;15.50;99.90;;;;;;4988247;28;20469;-67
2023/07/30 05:43:47;;;;;;;602.73;578.67;;;15.50;99.90;;;;;;4979763;28;20893;-67
2023/07/30 05:46:14;;;;;;;539.30;519.00;;;15.50;99.90;;;;;;4990728;28;20946;-67
2023/07/30 05:48:41;;;;;;;390.30;377.70;;;15.60;99.90;;;;;;4977569;28;20475;-68
2023/07/30 05:51:07;;;;;;;470.03;453.23;;;15.60;99.90;;;;;;4989866;28;20463;-67
2023/07/30 05:53:36;;;;;;;491.40;473.90;;;15.60;99.90;;;;;;4978567;28;20459;-67
2023/07/30 05:56:02;;;;;;;411.87;398.20;;;15.70;99.90;;;;;;4982684;28;20455;-67
2023/07/30 05:58:29;;;;;;;417.30;403.60;;;15.60;99.90;;;;;;4985045;28;20450;-67
2023/07/30 06:00:57;;;;;;;448.97;433.10;;;15.60;99.90;;;;;;4984978;28;20459;-67
2023/07/30 06:03:23;;;;;;;431.27;416.77;;;15.70;99.90;;;;;;4979274;28;20446;-68
2023/07/30 06:05:50;;;;;;;428.17;413.40;;;15.70;99.90;;;;;;4978236;28;20452;-67
2023/07/30 06:08:17;;;;;;;454.67;438.37;;;15.80;99.90;;;;;;4982789;28;20451;-68
2023/07/30 06:10:46;;;;;;;354.47;342.97;;;16.00;99.90;;;;;;4987108;28;20469;-68
2023/07/30 06:13:13;;;;;;;263.13;254.80;;;16.10;99.90;;;;;;4986082;28;20455;-68
2023/07/30 06:15:40;;;;;;;363.90;352.30;;;16.10;99.90;;;;;;4978312;28;20470;-69
2023/07/30 06:18:07;;;;;;;199.63;193.20;;;16.30;99.90;;;;;;4981709;28;20463;-69
2023/07/30 06:20:34;;;;;;;86.97;83.53;;;16.40;99.90;;;;;;4978836;28;20547;-69
2023/07/30 06:23:00;;;;;;;110.80;106.90;;;16.40;99.90;;;;;;4985153;28;20461;-69
2023/07/30 06:25:27;;;;;;;87.30;84.10;;;16.50;99.90;;;;;;4978221;28;20458;-69
2023/07/30 06:27:57;;;;;;;43.70;41.33;;;16.60;99.90;;;;;;4988580;28;20976;-69
2023/07/30 06:30:24;;;;;;;67.77;64.80;;;16.60;99.90;;;;;;4990731;28;20534;-69
2023/07/30 06:32:51;;;;;;;39.73;37.47;;;16.70;99.90;;;;;;4980238;28;20526;-69
2023/07/30 06:35:18;;;;;;;42.60;39.97;;;16.90;99.90;;;;;;4982218;28;20459;-69
2023/07/30 06:37:44;;;;;;;68.50;65.70;;;17.00;99.90;;;;;;4987484;28;20457;-69
2023/07/30 06:40:11;;;;;;;10.70;9.80;;;17.00;99.90;;;;;;4984410;28;20545;-69
2023/07/30 06:42:38;;;;;;;13.97;12.83;;;17.00;99.90;;;;;;4991816;28;20462;-69
2023/07/30 06:45:08;;;;;;;27.13;25.17;;;17.10;99.90;;;;;;4975489;28;20542;-69
2023/07/30 06:47:35;;;;;;;11.97;10.87;;;17.20;99.90;;;;;;4985625;28;20484;-69
2023/07/30 06:50:02;;;;;;;12.60;7.67;;;17.30;99.90;;;;;;4990357;28;20478;-69
2023/07/30 06:52:29;;;;;;;10.57;7.43;;;17.20;99.90;;;;;;4985729;28;20922;-68
2023/07/30 06:54:56;;;;;;;12.57;8.47;;;17.30;99.90;;;;;;4975936;28;20451;-69
2023/07/30 06:57:23;;;;;;;11.37;8.60;;;17.40;99.90;;;;;;4980922;28;20450;-68
2023/07/30 06:59:50;;;;;;;10.00;6.80;;;17.50;99.90;;;;;;4973349;28;20456;-68
2023/07/30 07:02:18;;;;;;;13.00;6.10;;;17.70;99.90;;;;;;4981476;28;20967;-69
2023/07/30 07:04:45;;;;;;;9.40;4.03;;;17.90;99.90;;;;;;4982371;28;20461;-69
2023/07/30 07:07:11;;;;;;;9.17;3.80;;;18.10;99.90;;;;;;4980867;28;20481;-69
2023/07/30 07:09:38;;;;;;;9.67;3.13;;;18.20;99.90;;;;;;4983543;28;20483;-68
2023/07/30 07:12:06;;;;;;;10.63;3.40;;;18.40;99.90;;;;;;4991645;28;20462;-69
2023/07/30 07:14:33;;;;;;;15.27;3.20;;;18.60;99.90;;;;;;4987586;28;20663;-68
2023/07/30 07:17:00;;;;;;;7.50;2.63;;;18.70;99.90;;;;;;4978734;28;21867;-69
2023/07/30 07:19:28;;;;;;;8.13;2.60;;;18.70;97.90;;;;;;4992065;28;20461;-69
2023/07/30 07:21:55;;;;;;;11.90;2.83;;;18.70;98.60;;;;;;4982978;28;20456;-69
2023/07/30 07:24:22;;;;;;;15.27;2.40;;;18.80;98.00;;;;;;4973369;28;20532;-68
2023/07/30 07:26:48;;;;;;;11.33;4.03;;;18.70;97.90;;;;;;4972978;28;20455;-69
2023/07/30 07:29:15;;;;;;;7.60;2.30;;;18.70;99.20;;;;;;4972786;28;20934;-69
2023/07/30 07:31:42;;;;;;;7.97;2.83;;;18.70;98.60;;;;;;4990304;28;20458;-68
2023/07/30 07:34:09;;;;;;;10.40;2.80;;;18.70;97.90;;;;;;4991292;28;20463;-68
2023/07/30 07:36:38;;;;;;;15.37;3.80;;;18.90;98.00;;;;;;4992093;28;20199;-69
2023/07/30 07:39:04;;;;;;;8.73;2.60;;;19.20;98.20;;;;;;4990812;28;21134;-69
2023/07/30 07:41:31;;;;;;;11.67;3.27;;;19.30;97.50;;;;;;4980182;28;20451;-69
2023/07/30 07:43:58;;;;;;;7.47;2.87;;;19.40;94.90;;;;;;4988442;28;20462;-69
2023/07/30 07:46:27;;;;;;;7.07;2.30;;;19.40;94.90;;;;;;4980664;28;20467;-69
2023/07/30 07:48:54;;;;;;;10.73;3.50;;;19.40;94.90;;;;;;4977056;28;20837;-69
2023/07/30 07:51:20;;;;;;;12.00;2.67;;;19.50;94.90;;;;;;4976698;28;20459;-69
2023/07/30 07:53:49;;;;;;;9.37;3.00;;;19.50;94.90;;;;;;4977308;28;20451;-69
2023/07/30 07:56:16;;;;;;;10.80;3.10;;;19.30;94.80;;;;;;4976828;28;20463;-68
2023/07/30 07:58:43;;;;;;;12.60;2.57;;;19.40;94.90;;;;;;4991154;28;20454;-68
2023/07/30 08:01:10;;;;;;;10.77;3.13;;;19.50;94.90;;;;;;4987431;28;20457;-68
2023/07/30 08:03:37;;;;;;;13.57;2.80;;;19.60;94.90;;;;;;4989504;28;20450;-69
2023/07/30 08:06:04;;;;;;;11.80;3.10;;;19.50;94.90;;;;;;4995811;28;20469;-69
2023/07/30 08:08:31;;;;;;;12.33;3.10;;;19.40;95.20;;;;;;4993670;28;20450;-69
2023/07/30 08:10:59;;;;;;;11.50;2.70;;;19.40;94.90;;;;;;4995869;28;20493;-69
2023/07/30 08:13:26;;;;;;;16.63;3.70;;;19.40;94.90;;;;;;4995890;28;20468;-69
2023/07/30 08:15:52;;;;;;;14.53;4.30;;;18.90;94.70;;;;;;4995972;28;20454;-69
2023/07/30 08:18:19;;;;;;;13.63;3.40;;;18.50;95.00;;;;;;4995694;28;20458;-68
2023/07/30 08:20:46;;;;;;;10.30;3.07;;;18.30;96.10;;;;;;4992088;28;20951;-68
2023/07/30 08:23:13;;;;;;;11.17;3.70;;;18.30;97.80;;;;;;4995785;28;20454;-69
2023/07/30 08:25:40;;;;;;;13.63;4.00;;;18.50;97.90;;;;;;4983855;28;20952;-69
2023/07/30 08:28:08;;;;;;;12.80;4.13;;;18.60;96.60;;;;;;4986134;28;20545;-68
2023/07/30 08:30:35;;;;;;;13.33;3.20;;;18.90;94.70;;;;;;4994919;28;20481;-68
2023/07/30 08:33:02;;;;;;;11.33;3.27;;;19.40;94.90;;;;;;4984157;28;20458;-69
2023/07/30 08:35:29;;;;;;;9.87;3.40;;;19.90;95.10;;;;;;4977886;28;20939;-69
2023/07/30 08:37:56;;;;;;;16.40;2.93;;;20.30;94.40;;;;;;4976206;28;20456;-69
2023/07/30 08:40:24;;;;;;;11.27;3.13;;;20.50;93.80;;;;;;4975777;28;20939;-69
2023/07/30 08:42:51;;;;;;;13.80;3.30;;;20.70;92.40;;;;;;4975991;28;20939;-68
2023/07/30 08:45:20;;;;;;;9.13;2.30;;;20.60;89.00;;;;;;4976243;28;20462;-68
2023/07/30 08:47:48;;;;;;;14.63;3.17;;;20.30;86.30;;;;;;4975882;28;20455;-69
2023/07/30 08:50:15;;;;;;;10.60;3.10;;;20.30;88.70;;;;;;4975659;28;20823;-69
2023/07/30 08:52:43;;;;;;;9.97;3.07;;;20.40;89.00;;;;;;4975235;28;20462;-69
2023/07/30 08:55:12;;;;;;;12.63;3.63;;;20.40;87.20;;;;;;4975102;28;20798;-68
2023/07/30 08:57:41;;;;;;;14.23;2.47;;;20.40;88.00;;;;;;4983434;28;20462;-68
2023/07/30 09:00:10;;;;;;;9.03;3.33;;;20.10;88.80;;;;;;4980615;28;20463;-69
2023/07/30 09:02:45;;;;;;;10.27;2.60;;;19.80;85.90;;;;;;4975590;28;20510;-68
2023/07/30 09:05:12;;;;;;;11.80;3.17;;;19.60;88.30;;;;;;4975715;28;20486;-69
2023/07/30 09:07:39;;;;;;;7.40;2.47;;;19.40;91.40;;;;;;4975466;28;20462;-69
2023/07/30 09:10:07;;;;;;;8.77;2.57;;;19.20;91.40;;;;;;4983108;28;21017;-68
2023/07/30 09:12:35;;;;;;;12.40;3.00;;;19.20;91.30;;;;;;4982381;28;20455;-68
2023/07/30 09:15:04;;;;;;;10.57;2.67;;;19.20;91.30;;;;;;4994725;28;20477;-68
2023/07/30 09:17:31;;;;;;;12.70;2.80;;;19.20;91.30;;;;;;4994760;28;20509;-68
2023/07/30 09:20:02;;;;;;;10.23;2.70;;;19.40;91.40;;;;;;4994527;28;20553;-69
2023/07/30 09:22:33;;;;;;;13.97;3.03;;;19.70;89.80;;;;;;4992772;28;20486;-68
2023/07/30 09:25:02;;;;;;;12.53;3.03;;;20.30;86.90;;;;;;4995013;28;20454;-68
2023/07/30 09:27:30;;;;;;;9.80;2.47;;;21.50;87.40;;;;;;4994480;28;20537;-68
2023/07/30 09:29:58;;;;;;;10.03;2.40;;;22.60;80.60;;;;;;4981193;28;20479;-68
2023/07/30 09:32:28;;;;;;;13.83;3.00;;;23.30;73.10;;;;;;4975993;28;20471;-68
2023/07/30 09:34:55;;;;;;;9.67;2.20;;;24.00;57.00;;;;;;4975363;28;20455;-68
2023/07/30 09:37:23;;;;;;;10.00;3.10;;;23.60;56.50;;;;;;4988159;28;20450;-69
2023/07/30 09:39:53;;;;;;;14.47;3.50;;;22.60;55.60;;;;;;4992324;28;20836;-68
2023/07/30 09:42:20;;;;;;;13.67;2.87;;;22.30;55.40;;;;;;4993396;28;20462;-68
2023/07/30 09:44:49;;;;;;;10.40;2.57;;;22.50;57.70;;;;;;4994529;28;20477;-68
2023/07/30 09:47:16;;;;;;;10.37;2.43;;;22.00;55.10;;;;;;4994261;28;20454;-68
2023/07/30 09:49:43;;;;;;;10.20;3.10;;;22.00;55.10;;;;;;4993735;28;20561;-68
2023/07/30 09:52:11;;;;;;;8.77;2.23;;;22.80;55.90;;;;;;4994082;28;20454;-69
2023/07/30 09:54:40;;;;;;;9.70;2.40;;;22.40;51.20;;;;;;4993209;28;20461;-69
2023/07/30 09:57:07;;;;;;;10.57;2.27;;;22.30;56.20;;;;;;4994080;28;20938;-68
2023/07/30 09:59:34;;;;;;;7.80;2.30;;;23.00;56.00;;;;;;4993967;28;20462;-68
2023/07/30 10:02:02;;;;;;;13.30;2.73;;;22.50;49.60;;;;;;4993551;28;20454;-68
2023/07/30 10:04:31;;;;;;;12.70;2.63;;;23.10;47.30;;;;;;4993818;28;20554;-68
2023/07/30 10:07:02;;;;;;;12.80;2.20;;;23.70;52.60;;;;;;4994044;28;20830;-68
2023/07/30 10:09:33;;;;;;;11.83;2.43;;;24.30;48.40;;;;;;4983521;28;20859;-68
2023/07/30 10:12:03;;;;;;;12.73;2.77;;;24.60;43.40;;;;;;4980703;28;20457;-69
2023/07/30 10:14:30;;;;;;;11.03;2.60;;;25.60;40.40;;;;;;4993926;28;20478;-69
2023/07/30 10:17:00;;;;;;;9.80;2.10;;;25.40;36.30;;;;;;4994187;28;20458;-68
2023/07/30 10:19:28;;;;;;;11.30;2.90;;;24.60;35.80;;;;;;4994164;28;20462;-68
2023/07/30 10:22:00;;;;;;;9.50;2.17;;;24.00;36.80;;;;;;4993754;28;20461;-68
2023/07/30 10:24:27;;;;;;;12.03;2.60;;;23.20;38.30;;;;;;4994253;28;20462;-68
2023/07/30 10:26:58;;;;;;;10.97;2.90;;;22.40;39.70;;;;;;4993399;28;20458;-68
2023/07/30 10:29:26;;;;;;;7.90;1.90;;;21.80;46.10;;;;;;4979529;28;20465;-68
2023/07/30 10:31:55;;;;;;;10.83;2.03;;;21.40;45.70;;;;;;4976006;28;20576;-68
2023/07/30 10:34:22;;;;;;;11.90;2.50;;;22.00;46.30;;;;;;4980156;28;20456;-68
2023/07/30 10:36:50;;;;;;;8.70;2.47;;;22.30;41.10;;;;;;4981811;28;20451;-68
2023/07/30 10:39:19;;;;;;;11.10;2.50;;;22.60;37.70;;;;;;4977845;28;20947;-68
2023/07/30 10:41:46;;;;;;;11.67;2.73;;;22.90;38.00;;;;;;4982271;28;20456;-68
2023/07/30 10:44:36;;;;;;;6.13;2.13;;;23.70;31.20;;;;;;4987425;28;20451;-67
2023/07/30 10:47:04;;;;;;;6.57;1.60;;;24.80;30.50;;;;;;4979560;28;20538;-68
2023/07/30 10:49:37;;;;;;;12.63;2.70;;;24.50;23.00;;;;;;4989733;28;20481;-68
2023/07/30 10:52:04;;;;;;;6.40;1.93;;;25.40;23.50;;;;;;4983127;28;20467;-68
2023/07/30 10:54:34;;;;;;;7.43;1.50;;;25.00;16.90;;;;;;4985502;28;21166;-68
2023/07/30 10:57:01;;;;;;;8.57;1.63;;;24.30;15.40;;;;;;4985069;28;20801;-69
2023/07/30 10:59:36;;;;;;;6.63;1.67;;;24.20;17.10;;;;;;4991648;28;20450;-68
2023/07/30 11:02:04;;;;;;;9.00;1.83;;;24.00;19.10;;;;;;4989584;28;20446;-68
2023/07/30 11:04:35;;;;;;;7.40;2.10;;;23.90;19.30;;;;;;4977829;28;20457;-68
2023/07/30 11:07:03;;;;;;;7.63;1.50;;;23.70;22.40;;;;;;4979794;28;20547;-69
2023/07/30 11:09:30;;;;;;;6.60;1.50;;;23.50;24.10;;;;;;4974601;28;20456;-68
2023/07/30 11:11:57;;;;;;;6.80;1.60;;;23.10;21.90;;;;;;4973400;28;20479;-68
2023/07/30 11:14:27;;;;;;;6.80;1.50;;;22.50;21.50;;;;;;4979079;28;20538;-69
2023/07/30 11:16:58;;;;;;;6.53;1.63;;;22.20;23.90;;;;;;4980970;28;20513;-68
2023/07/30 11:19:26;;;;;;;14.73;2.43;;;22.30;28.70;;;;;;4980995;28;20694;-68
2023/07/30 11:21:54;;;;;;;5.90;1.80;;;22.70;29.00;;;;;;4985251;28;20454;-69
2023/07/30 11:24:24;;;;;;;8.60;2.00;;;22.80;29.00;;;;;;4988854;28;20459;-68
2023/07/30 11:26:58;;;;;;;7.30;1.70;;;22.40;28.70;;;;;;4993213;28;20497;-68
2023/07/30 11:29:25;;;;;;;8.20;1.70;;;22.10;28.50;;;;;;4980075;28;20459;-68
2023/07/30 11:31:52;;;;;;;13.60;1.70;;;22.10;28.50;;;;;;4981998;28;21017;-69
2023/07/30 11:34:20;;;;;;;7.57;1.67;;;22.30;28.70;;;;;;4979078;28;20550;-68
2023/07/30 11:36:48;;;;;;;8.50;2.20;;;22.30;28.70;;;;;;4973530;28;20550;-69
2023/07/30 11:39:15;;;;;;;7.87;1.67;;;22.30;28.70;;;;;;4974589;28;20821;-69
2023/07/30 11:41:42;;;;;;;15.93;2.60;;;22.40;28.70;;;;;;4988788;28;20447;-69
2023/07/30 11:44:09;;;;;;;8.20;2.00;;;22.70;26.30;;;;;;4992971;28;20454;-68
2023/07/30 11:46:36;;;;;;;7.40;1.90;;;22.60;25.30;;;;;;4993363;28;20545;-69
2023/07/30 11:49:13;;;;;;;10.13;2.90;;;22.50;28.80;;;;;;4986877;28;20459;-68
2023/07/30 11:51:42;;;;;;;12.73;1.70;;;22.40;27.70;;;;;;4973202;28;20490;-69
2023/07/30 11:54:19;;;;;;;7.20;1.70;;;22.50;26.10;;;;;;4973670;28;20550;-69
2023/07/30 11:56:46;;;;;;;6.30;1.90;;;22.40;28.70;;;;;;4972718;28;20549;-69
2023/07/30 11:59:13;;;;;;;9.73;2.30;;;21.50;36.70;;;;;;4972726;28;20478;-66
2023/07/30 12:01:43;;;;;;;7.97;2.03;;;20.00;53.40;;;;;;4984474;28;20447;-66
2023/07/30 12:04:10;;;;;;;8.70;1.80;;;19.10;52.40;;;;;;4978789;28;20486;-65
2023/07/30 12:06:41;;;;;;;9.10;2.30;;;18.40;57.10;;;;;;4972620;28;20543;-66
2023/07/30 12:09:15;;;;;;;7.63;1.73;;;18.10;62.90;;;;;;4972495;28;20463;-66
2023/07/30 12:11:47;;;;;;;9.10;2.10;;;18.10;68.40;;;;;;4972554;28;20573;-66
2023/07/30 12:14:14;;;;;;;6.50;1.90;;;18.30;68.50;;;;;;4972676;28;20553;-67
2023/07/30 12:16:40;;;;;;;6.30;1.87;;;18.70;64.90;;;;;;4972910;28;20459;-66
2023/07/30 12:19:07;;;;;;;9.80;2.30;;;19.30;61.20;;;;;;4973379;28;20473;-67
2023/07/30 12:21:34;;;;;;;15.77;2.50;;;20.00;57.50;;;;;;4984039;28;20454;-67
2023/07/30 12:24:04;;;;;;;12.80;2.50;;;21.30;54.40;;;;;;4992429;28;20466;-67
2023/07/30 12:26:31;;;;;;;9.60;1.90;;;22.30;46.50;;;;;;4992270;28;20867;-68